sensor_id;sensor_type;location;lat;lon;timestamp;P1;durP1;ratioP1;P2;durP2;ratioP2
69463;SDS011;56665;41.106;16.688;2024-01-25T00:01:26;22.42;;;9.52;;
69463;SDS011;56665;41.106;16.688;2024-01-25T00:04:29;30.80;;;10.95;;
69463;SDS011;56665;41.106;16.688;2024-01-25T00:07:33;27.63;;;10.80;;
69463;SDS011;56665;41.106;16.688;2024-01-25T00:10:37;23.80;;;10.10;;
69463;SDS011;56665;41.106;16.688;2024-01-25T00:13:41;24.37;;;9.73;;
69463;SDS011;56665;41.106;16.688;2024-01-25T00:16:45;23.17;;;9.15;;
69463;SDS011;56665;41.106;16.688;2024-01-25T00:19:49;19.15;;;8.60;;
69463;SDS011;56665;41.106;16.688;2024-01-25T00:22:53;18.75;;;8.45;;
69463;SDS011;56665;41.106;16.688;2024-01-25T00:25:58;16.50;;;7.50;;
69463;SDS011;56665;41.106;16.688;2024-01-25T00:29:03;13.53;;;6.07;;
69463;SDS011;56665;41.106;16.688;2024-01-25T00:32:06;13.10;;;5.75;;
69463;SDS011;56665;41.106;16.688;2024-01-25T00:35:11;10.77;;;4.80;;
69463;SDS011;56665;41.106;16.688;2024-01-25T00:38:16;11.82;;;4.78;;
69463;SDS011;56665;41.106;16.688;2024-01-25T00:41:21;8.95;;;3.92;;
69463;SDS011;56665;41.106;16.688;2024-01-25T00:44:25;7.77;;;3.90;;
69463;SDS011;56665;41.106;16.688;2024-01-25T00:47:29;7.45;;;3.58;;
69463;SDS011;56665;41.106;16.688;2024-01-25T00:50:32;7.32;;;3.55;;
69463;SDS011;56665;41.106;16.688;2024-01-25T00:53:37;9.10;;;3.47;;
69463;SDS011;56665;41.106;16.688;2024-01-25T00:56:41;6.78;;;3.13;;
69463;SDS011;56665;41.106;16.688;2024-01-25T00:59:44;6.43;;;3.30;;
69463;SDS011;56665;41.106;16.688;2024-01-25T01:02:48;9.00;;;4.28;;
69463;SDS011;56665;41.106;16.688;2024-01-25T01:05:52;12.32;;;5.90;;
69463;SDS011;56665;41.106;16.688;2024-01-25T01:08:56;15.90;;;5.90;;
69463;SDS011;56665;41.106;16.688;2024-01-25T01:11:59;11.85;;;5.13;;
69463;SDS011;56665;41.106;16.688;2024-01-25T01:15:03;11.17;;;5.27;;
69463;SDS011;56665;41.106;16.688;2024-01-25T01:18:07;11.55;;;4.97;;
69463;SDS011;56665;41.106;16.688;2024-01-25T01:21:11;9.05;;;4.63;;
69463;SDS011;56665;41.106;16.688;2024-01-25T01:24:15;9.80;;;4.28;;
69463;SDS011;56665;41.106;16.688;2024-01-25T01:27:19;10.38;;;4.18;;
69463;SDS011;56665;41.106;16.688;2024-01-25T01:30:24;10.23;;;4.50;;
69463;SDS011;56665;41.106;16.688;2024-01-25T01:33:28;28.45;;;11.30;;
69463;SDS011;56665;41.106;16.688;2024-01-25T01:36:32;67.95;;;22.38;;
69463;SDS011;56665;41.106;16.688;2024-01-25T01:39:35;61.65;;;21.88;;
69463;SDS011;56665;41.106;16.688;2024-01-25T01:42:39;42.35;;;16.58;;
69463;SDS011;56665;41.106;16.688;2024-01-25T01:45:43;32.43;;;12.73;;
69463;SDS011;56665;41.106;16.688;2024-01-25T01:48:46;31.38;;;11.55;;
69463;SDS011;56665;41.106;16.688;2024-01-25T01:51:50;28.83;;;10.30;;
69463;SDS011;56665;41.106;16.688;2024-01-25T01:54:54;26.05;;;9.48;;
69463;SDS011;56665;41.106;16.688;2024-01-25T01:57:58;21.95;;;8.15;;
69463;SDS011;56665;41.106;16.688;2024-01-25T02:01:03;25.33;;;9.00;;
69463;SDS011;56665;41.106;16.688;2024-01-25T02:04:08;23.88;;;8.85;;
69463;SDS011;56665;41.106;16.688;2024-01-25T02:07:11;22.30;;;8.10;;
69463;SDS011;56665;41.106;16.688;2024-01-25T02:10:15;21.00;;;7.65;;
69463;SDS011;56665;41.106;16.688;2024-01-25T02:13:20;25.70;;;10.82;;
69463;SDS011;56665;41.106;16.688;2024-01-25T02:16:24;26.10;;;9.03;;
69463;SDS011;56665;41.106;16.688;2024-01-25T02:19:28;36.35;;;13.20;;
69463;SDS011;56665;41.106;16.688;2024-01-25T02:22:32;35.05;;;13.98;;
69463;SDS011;56665;41.106;16.688;2024-01-25T02:25:35;38.08;;;13.40;;
69463;SDS011;56665;41.106;16.688;2024-01-25T02:28:41;38.30;;;13.77;;
69463;SDS011;56665;41.106;16.688;2024-01-25T02:31:45;36.63;;;13.30;;
69463;SDS011;56665;41.106;16.688;2024-01-25T02:34:48;40.05;;;13.15;;
69463;SDS011;56665;41.106;16.688;2024-01-25T02:37:52;30.55;;;11.80;;
69463;SDS011;56665;41.106;16.688;2024-01-25T02:40:56;32.45;;;11.20;;
69463;SDS011;56665;41.106;16.688;2024-01-25T02:44:00;22.65;;;9.45;;
69463;SDS011;56665;41.106;16.688;2024-01-25T02:47:04;15.73;;;6.73;;
69463;SDS011;56665;41.106;16.688;2024-01-25T02:50:08;15.73;;;6.03;;
69463;SDS011;56665;41.106;16.688;2024-01-25T02:53:12;12.70;;;5.05;;
69463;SDS011;56665;41.106;16.688;2024-01-25T02:56:16;14.40;;;5.43;;
69463;SDS011;56665;41.106;16.688;2024-01-25T02:59:20;14.45;;;6.88;;
69463;SDS011;56665;41.106;16.688;2024-01-25T03:02:23;21.30;;;6.67;;
69463;SDS011;56665;41.106;16.688;2024-01-25T03:05:27;14.38;;;6.95;;
69463;SDS011;56665;41.106;16.688;2024-01-25T03:08:31;16.52;;;8.10;;
69463;SDS011;56665;41.106;16.688;2024-01-25T03:11:35;18.00;;;6.90;;
69463;SDS011;56665;41.106;16.688;2024-01-25T03:14:39;17.27;;;7.40;;
69463;SDS011;56665;41.106;16.688;2024-01-25T03:17:42;17.20;;;7.23;;
69463;SDS011;56665;41.106;16.688;2024-01-25T03:20:46;19.98;;;7.72;;
69463;SDS011;56665;41.106;16.688;2024-01-25T03:23:50;19.15;;;10.43;;
69463;SDS011;56665;41.106;16.688;2024-01-25T03:26:54;20.77;;;9.05;;
69463;SDS011;56665;41.106;16.688;2024-01-25T03:29:57;22.27;;;12.85;;
69463;SDS011;56665;41.106;16.688;2024-01-25T03:33:02;22.60;;;12.00;;
69463;SDS011;56665;41.106;16.688;2024-01-25T03:36:06;28.38;;;12.93;;
69463;SDS011;56665;41.106;16.688;2024-01-25T03:39:09;27.73;;;15.32;;
69463;SDS011;56665;41.106;16.688;2024-01-25T03:42:13;25.38;;;12.73;;
69463;SDS011;56665;41.106;16.688;2024-01-25T03:45:17;23.17;;;11.27;;
69463;SDS011;56665;41.106;16.688;2024-01-25T03:48:21;19.57;;;9.80;;
69463;SDS011;56665;41.106;16.688;2024-01-25T03:51:25;19.75;;;9.52;;
69463;SDS011;56665;41.106;16.688;2024-01-25T03:54:29;22.60;;;9.95;;
69463;SDS011;56665;41.106;16.688;2024-01-25T03:57:33;20.27;;;9.45;;
69463;SDS011;56665;41.106;16.688;2024-01-25T04:00:37;21.90;;;10.48;;
69463;SDS011;56665;41.106;16.688;2024-01-25T04:03:41;22.57;;;10.77;;
69463;SDS011;56665;41.106;16.688;2024-01-25T04:06:44;20.83;;;9.60;;
69463;SDS011;56665;41.106;16.688;2024-01-25T04:09:51;20.88;;;9.70;;
69463;SDS011;56665;41.106;16.688;2024-01-25T04:12:55;21.15;;;8.85;;
69463;SDS011;56665;41.106;16.688;2024-01-25T04:15:56;21.42;;;8.35;;
69463;SDS011;56665;41.106;16.688;2024-01-25T04:19:00;22.23;;;8.15;;
69463;SDS011;56665;41.106;16.688;2024-01-25T04:22:04;19.30;;;9.18;;
69463;SDS011;56665;41.106;16.688;2024-01-25T04:25:07;18.60;;;8.13;;
69463;SDS011;56665;41.106;16.688;2024-01-25T04:28:11;20.38;;;8.52;;
69463;SDS011;56665;41.106;16.688;2024-01-25T04:31:15;19.33;;;8.40;;
69463;SDS011;56665;41.106;16.688;2024-01-25T04:34:19;17.60;;;7.75;;
69463;SDS011;56665;41.106;16.688;2024-01-25T04:37:22;16.10;;;7.65;;
69463;SDS011;56665;41.106;16.688;2024-01-25T04:40:26;17.10;;;8.00;;
69463;SDS011;56665;41.106;16.688;2024-01-25T04:43:33;24.00;;;10.15;;
69463;SDS011;56665;41.106;16.688;2024-01-25T04:46:41;19.17;;;8.73;;
69463;SDS011;56665;41.106;16.688;2024-01-25T04:49:45;17.05;;;8.65;;
69463;SDS011;56665;41.106;16.688;2024-01-25T04:52:49;18.52;;;9.30;;
69463;SDS011;56665;41.106;16.688;2024-01-25T04:55:54;22.17;;;9.57;;
69463;SDS011;56665;41.106;16.688;2024-01-25T04:58:58;18.73;;;9.52;;
69463;SDS011;56665;41.106;16.688;2024-01-25T05:02:01;24.85;;;10.73;;
69463;SDS011;56665;41.106;16.688;2024-01-25T05:05:05;22.88;;;9.80;;
69463;SDS011;56665;41.106;16.688;2024-01-25T05:08:09;21.08;;;8.60;;
69463;SDS011;56665;41.106;16.688;2024-01-25T05:11:13;19.43;;;9.23;;
69463;SDS011;56665;41.106;16.688;2024-01-25T05:14:16;29.75;;;11.50;;
69463;SDS011;56665;41.106;16.688;2024-01-25T05:17:20;25.50;;;10.38;;
69463;SDS011;56665;41.106;16.688;2024-01-25T05:20:24;22.70;;;10.57;;
69463;SDS011;56665;41.106;16.688;2024-01-25T05:23:35;21.02;;;10.80;;
69463;SDS011;56665;41.106;16.688;2024-01-25T05:26:38;20.70;;;8.33;;
69463;SDS011;56665;41.106;16.688;2024-01-25T05:29:42;20.13;;;8.77;;
69463;SDS011;56665;41.106;16.688;2024-01-25T05:32:46;21.70;;;9.95;;
69463;SDS011;56665;41.106;16.688;2024-01-25T05:35:51;23.20;;;11.18;;
69463;SDS011;56665;41.106;16.688;2024-01-25T05:38:55;25.73;;;11.45;;
69463;SDS011;56665;41.106;16.688;2024-01-25T05:41:59;25.67;;;11.33;;
69463;SDS011;56665;41.106;16.688;2024-01-25T05:45:02;25.80;;;10.95;;
69463;SDS011;56665;41.106;16.688;2024-01-25T05:48:07;23.27;;;10.75;;
69463;SDS011;56665;41.106;16.688;2024-01-25T05:51:11;25.83;;;9.85;;
69463;SDS011;56665;41.106;16.688;2024-01-25T05:54:17;21.08;;;9.57;;
69463;SDS011;56665;41.106;16.688;2024-01-25T05:57:20;24.77;;;10.03;;
69463;SDS011;56665;41.106;16.688;2024-01-25T06:00:24;25.38;;;10.68;;
69463;SDS011;56665;41.106;16.688;2024-01-25T06:03:28;26.08;;;10.48;;
69463;SDS011;56665;41.106;16.688;2024-01-25T06:06:32;32.85;;;14.15;;
69463;SDS011;56665;41.106;16.688;2024-01-25T06:09:35;43.13;;;20.10;;
69463;SDS011;56665;41.106;16.688;2024-01-25T06:12:39;31.63;;;13.57;;
69463;SDS011;56665;41.106;16.688;2024-01-25T06:15:43;25.98;;;10.60;;
69463;SDS011;56665;41.106;16.688;2024-01-25T06:18:47;23.10;;;10.38;;
69463;SDS011;56665;41.106;16.688;2024-01-25T06:21:51;21.02;;;8.88;;
69463;SDS011;56665;41.106;16.688;2024-01-25T06:24:54;22.98;;;11.38;;
69463;SDS011;56665;41.106;16.688;2024-01-25T06:27:58;27.23;;;13.83;;
69463;SDS011;56665;41.106;16.688;2024-01-25T06:31:02;31.83;;;16.75;;
69463;SDS011;56665;41.106;16.688;2024-01-25T06:34:06;28.35;;;15.70;;
69463;SDS011;56665;41.106;16.688;2024-01-25T06:37:10;31.80;;;15.30;;
69463;SDS011;56665;41.106;16.688;2024-01-25T06:40:16;32.65;;;15.82;;
69463;SDS011;56665;41.106;16.688;2024-01-25T06:43:20;30.73;;;15.67;;
69463;SDS011;56665;41.106;16.688;2024-01-25T06:46:24;42.72;;;19.30;;
69463;SDS011;56665;41.106;16.688;2024-01-25T06:49:27;46.22;;;23.50;;
69463;SDS011;56665;41.106;16.688;2024-01-25T06:52:32;48.15;;;22.95;;
69463;SDS011;56665;41.106;16.688;2024-01-25T06:55:36;42.55;;;21.65;;
69463;SDS011;56665;41.106;16.688;2024-01-25T06:58:39;38.53;;;20.33;;
69463;SDS011;56665;41.106;16.688;2024-01-25T07:01:43;33.28;;;19.05;;
69463;SDS011;56665;41.106;16.688;2024-01-25T07:04:47;32.40;;;18.33;;
69463;SDS011;56665;41.106;16.688;2024-01-25T07:07:50;31.08;;;16.85;;
69463;SDS011;56665;41.106;16.688;2024-01-25T07:10:54;29.63;;;15.00;;
69463;SDS011;56665;41.106;16.688;2024-01-25T07:13:59;28.57;;;14.97;;
69463;SDS011;56665;41.106;16.688;2024-01-25T07:17:03;26.25;;;13.80;;
69463;SDS011;56665;41.106;16.688;2024-01-25T07:20:06;22.90;;;12.70;;
69463;SDS011;56665;41.106;16.688;2024-01-25T07:23:10;22.10;;;12.88;;
69463;SDS011;56665;41.106;16.688;2024-01-25T07:26:16;25.20;;;12.27;;
69463;SDS011;56665;41.106;16.688;2024-01-25T07:29:22;25.70;;;13.23;;
69463;SDS011;56665;41.106;16.688;2024-01-25T07:32:26;26.38;;;12.80;;
69463;SDS011;56665;41.106;16.688;2024-01-25T07:35:31;23.65;;;12.50;;
69463;SDS011;56665;41.106;16.688;2024-01-25T07:38:35;22.05;;;11.73;;
69463;SDS011;56665;41.106;16.688;2024-01-25T07:41:38;21.63;;;12.02;;
69463;SDS011;56665;41.106;16.688;2024-01-25T07:44:42;22.63;;;12.07;;
69463;SDS011;56665;41.106;16.688;2024-01-25T07:47:46;23.40;;;12.38;;
69463;SDS011;56665;41.106;16.688;2024-01-25T07:50:49;22.13;;;11.93;;
69463;SDS011;56665;41.106;16.688;2024-01-25T07:53:54;21.33;;;11.70;;
69463;SDS011;56665;41.106;16.688;2024-01-25T07:56:58;20.85;;;11.77;;
69463;SDS011;56665;41.106;16.688;2024-01-25T08:00:02;19.98;;;11.48;;
69463;SDS011;56665;41.106;16.688;2024-01-25T08:03:08;18.20;;;11.30;;
69463;SDS011;56665;41.106;16.688;2024-01-25T08:06:12;22.30;;;11.35;;
69463;SDS011;56665;41.106;16.688;2024-01-25T08:09:16;19.17;;;10.60;;
69463;SDS011;56665;41.106;16.688;2024-01-25T08:12:20;23.10;;;10.45;;
69463;SDS011;56665;41.106;16.688;2024-01-25T08:15:24;19.00;;;10.23;;
69463;SDS011;56665;41.106;16.688;2024-01-25T08:18:28;18.73;;;10.00;;
69463;SDS011;56665;41.106;16.688;2024-01-25T08:21:32;21.38;;;10.98;;
69463;SDS011;56665;41.106;16.688;2024-01-25T08:24:39;16.77;;;9.98;;
69463;SDS011;56665;41.106;16.688;2024-01-25T08:27:43;17.60;;;9.63;;
69463;SDS011;56665;41.106;16.688;2024-01-25T08:30:47;16.43;;;8.73;;
69463;SDS011;56665;41.106;16.688;2024-01-25T08:33:51;14.60;;;8.38;;
69463;SDS011;56665;41.106;16.688;2024-01-25T08:36:55;18.30;;;9.52;;
69463;SDS011;56665;41.106;16.688;2024-01-25T08:39:58;19.38;;;10.55;;
69463;SDS011;56665;41.106;16.688;2024-01-25T08:43:02;22.58;;;11.07;;
69463;SDS011;56665;41.106;16.688;2024-01-25T08:46:07;22.30;;;10.53;;
69463;SDS011;56665;41.106;16.688;2024-01-25T08:49:12;16.40;;;7.55;;
69463;SDS011;56665;41.106;16.688;2024-01-25T08:52:15;12.43;;;6.63;;
69463;SDS011;56665;41.106;16.688;2024-01-25T08:55:19;13.52;;;5.78;;
69463;SDS011;56665;41.106;16.688;2024-01-25T08:58:23;11.68;;;5.00;;
69463;SDS011;56665;41.106;16.688;2024-01-25T09:01:27;12.10;;;5.47;;
69463;SDS011;56665;41.106;16.688;2024-01-25T09:04:31;10.65;;;4.68;;
69463;SDS011;56665;41.106;16.688;2024-01-25T09:07:35;11.32;;;4.80;;
69463;SDS011;56665;41.106;16.688;2024-01-25T09:10:40;10.98;;;5.30;;
69463;SDS011;56665;41.106;16.688;2024-01-25T09:13:44;8.93;;;4.43;;
69463;SDS011;56665;41.106;16.688;2024-01-25T09:16:50;8.13;;;4.53;;
69463;SDS011;56665;41.106;16.688;2024-01-25T09:19:54;8.57;;;4.85;;
69463;SDS011;56665;41.106;16.688;2024-01-25T09:22:57;8.63;;;4.75;;
69463;SDS011;56665;41.106;16.688;2024-01-25T09:26:01;10.13;;;4.93;;
69463;SDS011;56665;41.106;16.688;2024-01-25T09:29:05;9.57;;;4.68;;
69463;SDS011;56665;41.106;16.688;2024-01-25T09:32:09;9.73;;;4.90;;
69463;SDS011;56665;41.106;16.688;2024-01-25T09:35:13;17.60;;;5.15;;
69463;SDS011;56665;41.106;16.688;2024-01-25T09:38:17;9.88;;;5.00;;
69463;SDS011;56665;41.106;16.688;2024-01-25T09:41:21;10.48;;;4.40;;
69463;SDS011;56665;41.106;16.688;2024-01-25T09:44:24;9.45;;;4.47;;
69463;SDS011;56665;41.106;16.688;2024-01-25T09:47:28;8.77;;;4.67;;
69463;SDS011;56665;41.106;16.688;2024-01-25T09:50:32;7.93;;;4.47;;
69463;SDS011;56665;41.106;16.688;2024-01-25T09:53:37;8.55;;;4.75;;
69463;SDS011;56665;41.106;16.688;2024-01-25T09:56:42;8.98;;;4.75;;
69463;SDS011;56665;41.106;16.688;2024-01-25T09:59:46;8.57;;;4.57;;
69463;SDS011;56665;41.106;16.688;2024-01-25T10:02:50;9.38;;;5.10;;
69463;SDS011;56665;41.106;16.688;2024-01-25T10:05:54;10.70;;;5.07;;
69463;SDS011;56665;41.106;16.688;2024-01-25T10:08:58;8.70;;;5.00;;
69463;SDS011;56665;41.106;16.688;2024-01-25T10:12:01;10.25;;;5.03;;
69463;SDS011;56665;41.106;16.688;2024-01-25T10:15:05;9.40;;;4.70;;
69463;SDS011;56665;41.106;16.688;2024-01-25T10:18:09;7.30;;;4.30;;
69463;SDS011;56665;41.106;16.688;2024-01-25T10:21:16;8.63;;;4.93;;
69463;SDS011;56665;41.106;16.688;2024-01-25T10:24:20;10.32;;;5.50;;
69463;SDS011;56665;41.106;16.688;2024-01-25T10:27:24;9.35;;;5.28;;
69463;SDS011;56665;41.106;16.688;2024-01-25T10:30:28;10.18;;;4.63;;
69463;SDS011;56665;41.106;16.688;2024-01-25T10:33:35;10.60;;;4.40;;
69463;SDS011;56665;41.106;16.688;2024-01-25T10:36:41;10.03;;;4.37;;
69463;SDS011;56665;41.106;16.688;2024-01-25T10:39:45;12.38;;;6.22;;
69463;SDS011;56665;41.106;16.688;2024-01-25T10:42:50;13.13;;;6.50;;
69463;SDS011;56665;41.106;16.688;2024-01-25T10:45:54;10.32;;;5.72;;
69463;SDS011;56665;41.106;16.688;2024-01-25T10:49:01;11.95;;;6.95;;
69463;SDS011;56665;41.106;16.688;2024-01-25T10:52:05;12.10;;;6.53;;
69463;SDS011;56665;41.106;16.688;2024-01-25T10:55:10;11.57;;;6.75;;
69463;SDS011;56665;41.106;16.688;2024-01-25T10:58:15;12.52;;;7.38;;
69463;SDS011;56665;41.106;16.688;2024-01-25T11:01:19;12.10;;;6.70;;
69463;SDS011;56665;41.106;16.688;2024-01-25T11:04:23;10.60;;;6.40;;
69463;SDS011;56665;41.106;16.688;2024-01-25T11:07:27;11.27;;;5.80;;
69463;SDS011;56665;41.106;16.688;2024-01-25T11:10:34;12.65;;;5.45;;
69463;SDS011;56665;41.106;16.688;2024-01-25T11:13:39;11.98;;;6.05;;
69463;SDS011;56665;41.106;16.688;2024-01-25T11:16:45;13.85;;;6.25;;
69463;SDS011;56665;41.106;16.688;2024-01-25T11:19:50;10.73;;;6.30;;
69463;SDS011;56665;41.106;16.688;2024-01-25T11:23:13;12.13;;;6.20;;
69463;SDS011;56665;41.106;16.688;2024-01-25T11:26:19;11.38;;;5.80;;
69463;SDS011;56665;41.106;16.688;2024-01-25T11:29:28;12.35;;;5.60;;
69463;SDS011;56665;41.106;16.688;2024-01-25T11:32:31;13.52;;;5.80;;
69463;SDS011;56665;41.106;16.688;2024-01-25T11:35:35;11.20;;;5.80;;
69463;SDS011;56665;41.106;16.688;2024-01-25T11:38:39;12.70;;;5.33;;
69463;SDS011;56665;41.106;16.688;2024-01-25T11:41:43;11.77;;;5.25;;
69463;SDS011;56665;41.106;16.688;2024-01-25T11:44:47;9.15;;;4.55;;
69463;SDS011;56665;41.106;16.688;2024-01-25T11:47:51;11.75;;;5.60;;
69463;SDS011;56665;41.106;16.688;2024-01-25T11:50:55;8.52;;;5.03;;
69463;SDS011;56665;41.106;16.688;2024-01-25T11:53:59;10.17;;;5.07;;
69463;SDS011;56665;41.106;16.688;2024-01-25T11:57:03;9.48;;;5.35;;
69463;SDS011;56665;41.106;16.688;2024-01-25T12:00:10;13.63;;;5.88;;
69463;SDS011;56665;41.106;16.688;2024-01-25T12:03:17;10.73;;;5.45;;
69463;SDS011;56665;41.106;16.688;2024-01-25T12:06:21;13.23;;;6.43;;
69463;SDS011;56665;41.106;16.688;2024-01-25T12:09:25;10.13;;;5.70;;
69463;SDS011;56665;41.106;16.688;2024-01-25T12:12:28;9.23;;;5.35;;
69463;SDS011;56665;41.106;16.688;2024-01-25T12:15:32;11.55;;;5.95;;
69463;SDS011;56665;41.106;16.688;2024-01-25T12:18:36;10.63;;;5.82;;
69463;SDS011;56665;41.106;16.688;2024-01-25T12:21:43;11.65;;;6.05;;
69463;SDS011;56665;41.106;16.688;2024-01-25T12:24:47;9.70;;;5.13;;
69463;SDS011;56665;41.106;16.688;2024-01-25T12:27:51;8.05;;;5.68;;
69463;SDS011;56665;41.106;16.688;2024-01-25T12:30:56;9.77;;;5.82;;
69463;SDS011;56665;41.106;16.688;2024-01-25T12:34:00;9.07;;;5.50;;
69463;SDS011;56665;41.106;16.688;2024-01-25T12:37:04;9.48;;;5.97;;
69463;SDS011;56665;41.106;16.688;2024-01-25T12:40:08;9.33;;;5.13;;
69463;SDS011;56665;41.106;16.688;2024-01-25T12:43:12;11.70;;;6.30;;
69463;SDS011;56665;41.106;16.688;2024-01-25T12:46:16;10.88;;;5.75;;
69463;SDS011;56665;41.106;16.688;2024-01-25T12:49:19;10.23;;;6.15;;
69463;SDS011;56665;41.106;16.688;2024-01-25T12:52:25;11.02;;;6.15;;
69463;SDS011;56665;41.106;16.688;2024-01-25T12:55:29;15.03;;;9.87;;
69463;SDS011;56665;41.106;16.688;2024-01-25T12:58:33;11.40;;;6.10;;
69463;SDS011;56665;41.106;16.688;2024-01-25T13:01:37;9.75;;;5.55;;
69463;SDS011;56665;41.106;16.688;2024-01-25T13:04:41;8.98;;;5.90;;
69463;SDS011;56665;41.106;16.688;2024-01-25T13:07:45;10.02;;;6.93;;
69463;SDS011;56665;41.106;16.688;2024-01-25T13:10:48;9.30;;;5.80;;
69463;SDS011;56665;41.106;16.688;2024-01-25T13:13:52;10.25;;;6.30;;
69463;SDS011;56665;41.106;16.688;2024-01-25T13:16:56;12.65;;;6.82;;
69463;SDS011;56665;41.106;16.688;2024-01-25T13:20:00;11.60;;;7.10;;
69463;SDS011;56665;41.106;16.688;2024-01-25T13:23:04;11.02;;;7.03;;
69463;SDS011;56665;41.106;16.688;2024-01-25T13:26:07;11.83;;;7.47;;
69463;SDS011;56665;41.106;16.688;2024-01-25T13:29:11;11.70;;;7.10;;
69463;SDS011;56665;41.106;16.688;2024-01-25T13:32:16;12.43;;;7.30;;
69463;SDS011;56665;41.106;16.688;2024-01-25T13:35:20;12.02;;;6.70;;
69463;SDS011;56665;41.106;16.688;2024-01-25T13:38:24;9.52;;;6.30;;
69463;SDS011;56665;41.106;16.688;2024-01-25T13:41:28;9.57;;;5.27;;
69463;SDS011;56665;41.106;16.688;2024-01-25T13:44:31;10.05;;;6.80;;
69463;SDS011;56665;41.106;16.688;2024-01-25T13:47:35;10.20;;;7.03;;
69463;SDS011;56665;41.106;16.688;2024-01-25T13:50:39;9.63;;;6.90;;
69463;SDS011;56665;41.106;16.688;2024-01-25T13:53:43;11.52;;;6.30;;
69463;SDS011;56665;41.106;16.688;2024-01-25T13:56:46;13.53;;;7.23;;
69463;SDS011;56665;41.106;16.688;2024-01-25T13:59:50;18.08;;;8.40;;
69463;SDS011;56665;41.106;16.688;2024-01-25T14:02:54;11.60;;;8.02;;
69463;SDS011;56665;41.106;16.688;2024-01-25T14:05:58;8.82;;;4.93;;
69463;SDS011;56665;41.106;16.688;2024-01-25T14:09:07;7.45;;;3.95;;
69463;SDS011;56665;41.106;16.688;2024-01-25T14:12:11;5.43;;;3.00;;
69463;SDS011;56665;41.106;16.688;2024-01-25T14:15:15;8.85;;;2.85;;
69463;SDS011;56665;41.106;16.688;2024-01-25T14:18:18;5.35;;;2.67;;
69463;SDS011;56665;41.106;16.688;2024-01-25T14:21:22;3.88;;;2.20;;
69463;SDS011;56665;41.106;16.688;2024-01-25T14:24:26;5.00;;;3.00;;
69463;SDS011;56665;41.106;16.688;2024-01-25T14:27:30;3.97;;;2.27;;
69463;SDS011;56665;41.106;16.688;2024-01-25T14:30:34;8.02;;;3.42;;
69463;SDS011;56665;41.106;16.688;2024-01-25T14:33:38;5.55;;;3.30;;
69463;SDS011;56665;41.106;16.688;2024-01-25T14:36:42;7.85;;;4.43;;
69463;SDS011;56665;41.106;16.688;2024-01-25T14:39:45;5.70;;;2.95;;
69463;SDS011;56665;41.106;16.688;2024-01-25T14:42:49;5.50;;;2.33;;
69463;SDS011;56665;41.106;16.688;2024-01-25T14:45:53;6.30;;;2.97;;
69463;SDS011;56665;41.106;16.688;2024-01-25T14:48:57;12.55;;;4.18;;
69463;SDS011;56665;41.106;16.688;2024-01-25T14:52:01;10.23;;;4.20;;
69463;SDS011;56665;41.106;16.688;2024-01-25T14:55:06;9.52;;;3.13;;
69463;SDS011;56665;41.106;16.688;2024-01-25T14:58:10;6.63;;;2.97;;
69463;SDS011;56665;41.106;16.688;2024-01-25T15:01:14;7.95;;;3.72;;
69463;SDS011;56665;41.106;16.688;2024-01-25T15:04:20;7.35;;;3.10;;
69463;SDS011;56665;41.106;16.688;2024-01-25T15:07:24;7.90;;;4.38;;
69463;SDS011;56665;41.106;16.688;2024-01-25T15:10:28;4.88;;;2.40;;
69463;SDS011;56665;41.106;16.688;2024-01-25T15:13:34;4.87;;;2.60;;
69463;SDS011;56665;41.106;16.688;2024-01-25T15:16:38;6.00;;;2.78;;
69463;SDS011;56665;41.106;16.688;2024-01-25T15:19:42;4.88;;;2.22;;
69463;SDS011;56665;41.106;16.688;2024-01-25T15:22:46;6.45;;;3.17;;
69463;SDS011;56665;41.106;16.688;2024-01-25T15:25:50;10.13;;;5.00;;
69463;SDS011;56665;41.106;16.688;2024-01-25T15:28:54;6.90;;;4.00;;
69463;SDS011;56665;41.106;16.688;2024-01-25T15:31:59;10.10;;;4.40;;
69463;SDS011;56665;41.106;16.688;2024-01-25T15:35:03;11.20;;;5.65;;
69463;SDS011;56665;41.106;16.688;2024-01-25T15:38:07;12.98;;;7.18;;
69463;SDS011;56665;41.106;16.688;2024-01-25T15:41:11;21.40;;;10.23;;
69463;SDS011;56665;41.106;16.688;2024-01-25T15:44:15;24.17;;;12.80;;
69463;SDS011;56665;41.106;16.688;2024-01-25T15:47:18;29.77;;;14.38;;
69463;SDS011;56665;41.106;16.688;2024-01-25T15:50:23;26.23;;;14.48;;
69463;SDS011;56665;41.106;16.688;2024-01-25T15:53:27;24.70;;;13.77;;
69463;SDS011;56665;41.106;16.688;2024-01-25T15:56:31;26.35;;;14.77;;
69463;SDS011;56665;41.106;16.688;2024-01-25T15:59:35;21.90;;;12.10;;
69463;SDS011;56665;41.106;16.688;2024-01-25T16:02:38;19.52;;;10.90;;
69463;SDS011;56665;41.106;16.688;2024-01-25T16:05:42;15.13;;;9.30;;
69463;SDS011;56665;41.106;16.688;2024-01-25T16:08:46;14.07;;;8.85;;
69463;SDS011;56665;41.106;16.688;2024-01-25T16:11:50;15.15;;;9.75;;
69463;SDS011;56665;41.106;16.688;2024-01-25T16:14:54;15.37;;;9.53;;
69463;SDS011;56665;41.106;16.688;2024-01-25T16:17:59;17.48;;;11.02;;
69463;SDS011;56665;41.106;16.688;2024-01-25T16:21:04;15.70;;;10.48;;
69463;SDS011;56665;41.106;16.688;2024-01-25T16:24:07;14.20;;;9.18;;
69463;SDS011;56665;41.106;16.688;2024-01-25T16:27:11;14.50;;;9.27;;
69463;SDS011;56665;41.106;16.688;2024-01-25T16:30:15;12.43;;;7.33;;
69463;SDS011;56665;41.106;16.688;2024-01-25T16:33:19;14.52;;;8.20;;
69463;SDS011;56665;41.106;16.688;2024-01-25T16:36:23;18.23;;;8.48;;
69463;SDS011;56665;41.106;16.688;2024-01-25T16:39:27;13.52;;;7.90;;
69463;SDS011;56665;41.106;16.688;2024-01-25T16:42:31;18.52;;;11.55;;
69463;SDS011;56665;41.106;16.688;2024-01-25T16:45:34;13.60;;;9.67;;
69463;SDS011;56665;41.106;16.688;2024-01-25T16:48:38;19.75;;;10.50;;
69463;SDS011;56665;41.106;16.688;2024-01-25T16:51:42;18.75;;;10.57;;
69463;SDS011;56665;41.106;16.688;2024-01-25T16:54:46;30.80;;;15.02;;
69463;SDS011;56665;41.106;16.688;2024-01-25T16:57:49;38.83;;;19.85;;
69463;SDS011;56665;41.106;16.688;2024-01-25T17:00:53;32.27;;;18.60;;
69463;SDS011;56665;41.106;16.688;2024-01-25T17:03:58;34.80;;;18.30;;
69463;SDS011;56665;41.106;16.688;2024-01-25T17:07:01;29.60;;;16.73;;
69463;SDS011;56665;41.106;16.688;2024-01-25T17:10:05;25.00;;;14.15;;
69463;SDS011;56665;41.106;16.688;2024-01-25T17:13:10;31.48;;;14.38;;
69463;SDS011;56665;41.106;16.688;2024-01-25T17:16:14;24.43;;;13.90;;
69463;SDS011;56665;41.106;16.688;2024-01-25T17:19:18;25.58;;;14.00;;
69463;SDS011;56665;41.106;16.688;2024-01-25T17:22:21;23.17;;;13.50;;
69463;SDS011;56665;41.106;16.688;2024-01-25T17:25:25;22.90;;;13.88;;
69463;SDS011;56665;41.106;16.688;2024-01-25T17:28:29;30.25;;;16.10;;
69463;SDS011;56665;41.106;16.688;2024-01-25T17:31:34;29.23;;;17.73;;
69463;SDS011;56665;41.106;16.688;2024-01-25T17:34:38;30.92;;;19.45;;
69463;SDS011;56665;41.106;16.688;2024-01-25T17:37:42;33.83;;;20.17;;
69463;SDS011;56665;41.106;16.688;2024-01-25T17:40:46;31.75;;;19.25;;
69463;SDS011;56665;41.106;16.688;2024-01-25T17:43:50;33.28;;;20.77;;
69463;SDS011;56665;41.106;16.688;2024-01-25T17:46:54;35.97;;;20.70;;
69463;SDS011;56665;41.106;16.688;2024-01-25T17:49:58;37.17;;;23.45;;
69463;SDS011;56665;41.106;16.688;2024-01-25T17:53:02;40.28;;;23.67;;